Temp: 14.2°C   Baro: 1027.4mb
  Wind: 0.0mph   Dir: W (281°)
  Rain: 0.0mm (0.0mm/hr)
  Solar: 0W/m2  Hum: 84%
 
Bath Spa Weather Station Historical Data
Daily Summary for April 14, 2021 Units:  Both    English   Metric
Daily Weekly Monthly Yearly Custom
  High: Low: Average:
Temperature: 56.6 °F /  13.7 °C 37 °F /  2.8 °C 46.7 °F /  8.2 °C
Dew Point: 42.8 °F /  6 °C 33.1 °F /  0.6 °C 37.6 °F /  3.1 °C
Humidity: 92% 49.6% 70%
Wind Speed: 10.2mph /  16.4km/h - 2.3mph /  3.7km/h
Wind Gust: 16mph /  25.7km/h - -
Wind- - East
Pressure: 30.51 in /  1033.1 hPa 30.45 in /  1031 hPa -
Precipitation: 0.00 in /  0 mm    
Historical Graphs
 
 
Tabular Data for April 14, 2021
Time Temperature Dew Point Pressure Wind Wind Speed Wind Gust Humidity Rainfall Rate (Hourly) solar
00:04 43.2 °F /  6.2 °C 39.6 °F /  4.2 °C 30.48in /  1032.1hPa Calm     84% 0.00in /  0mm 0 W/m2
00:09 43 °F /  6.1 °C 39.4 °F /  4.1 °C 30.48in /  1032.1hPa Calm     84% 0.00in /  0mm 0 W/m2
00:14 43 °F /  6.1 °C 39.4 °F /  4.1 °C 30.48in /  1032.1hPa Calm     84% 0.00in /  0mm 0 W/m2
00:19 42.9 °F /  6.1 °C 39.3 °F /  4.1 °C 30.48in /  1032.1hPa Calm     84% 0.00in /  0mm 0 W/m2
00:24 42.8 °F /  6 °C 39.2 °F /  4 °C 30.48in /  1032.1hPa Calm     84% 0.00in /  0mm 0 W/m2
00:29 42.8 °F /  6 °C 39.5 °F /  4.2 °C 30.48in /  1032.1hPa Calm     84.8% 0.00in /  0mm 0 W/m2
00:34 42.6 °F /  5.9 °C 39.4 °F /  4.1 °C 30.48in /  1032.1hPa Calm     85% 0.00in /  0mm 0 W/m2
00:39 42.6 °F /  5.9 °C 39.4 °F /  4.1 °C 30.48in /  1032.1hPa Calm     85% 0.00in /  0mm 0 W/m2
00:44 42.5 °F /  5.8 °C 39.3 °F /  4.1 °C 30.48in /  1032.1hPa Calm     85% 0.00in /  0mm 0 W/m2
00:49 42.4 °F /  5.8 °C 39.2 °F /  4 °C 30.48in /  1032.1hPa Calm     85% 0.00in /  0mm 0 W/m2
00:54 42.3 °F /  5.7 °C 39 °F /  3.9 °C 30.48in /  1032.1hPa Calm     85% 0.00in /  0mm 0 W/m2
00:59 42.3 °F /  5.7 °C 39 °F /  3.9 °C 30.48in /  1032.1hPa Calm     85.2% 0.00in /  0mm 0 W/m2
01:04 42.2 °F /  5.7 °C 39 °F /  3.9 °C 30.48in /  1032.1hPa Calm     85.8% 0.00in /  0mm 0 W/m2
01:09 41.9 °F /  5.5 °C 38.7 °F /  3.7 °C 30.48in /  1032.1hPa Calm     85.2% 0.00in /  0mm 0 W/m2
01:14 41.7 °F /  5.4 °C 38.7 °F /  3.7 °C 30.48in /  1032.1hPa Calm     86% 0.00in /  0mm 0 W/m2
01:19 41.5 °F /  5.3 °C 38.5 °F /  3.6 °C 30.48in /  1032.1hPa Calm     86% 0.00in /  0mm 0 W/m2
01:24 41.5 °F /  5.3 °C 38.5 °F /  3.6 °C 30.48in /  1032.1hPa Calm     86% 0.00in /  0mm 0 W/m2
01:29 41.5 °F /  5.3 °C 38.5 °F /  3.6 °C 30.48in /  1032.1hPa Calm     86% 0.00in /  0mm 0 W/m2
01:34 41.5 °F /  5.3 °C 38.7 °F /  3.7 °C 30.47in /  1031.7hPa Calm     86.8% 0.00in /  0mm 0 W/m2
01:39 41.5 °F /  5.3 °C 38.8 °F /  3.8 °C 30.47in /  1031.7hPa Calm     87% 0.00in /  0mm 0 W/m2
01:44 41.5 °F /  5.3 °C 38.8 °F /  3.8 °C 30.47in /  1031.7hPa Calm     87% 0.00in /  0mm 0 W/m2
01:49 41.5 °F /  5.3 °C 38.8 °F /  3.8 °C 30.47in /  1031.7hPa Calm     87% 0.00in /  0mm 0 W/m2
01:54 41.4 °F /  5.2 °C 38.7 °F /  3.7 °C 30.47in /  1031.7hPa Calm     87% 0.00in /  0mm 0 W/m2
01:59 41.1 °F /  5.1 °C 38.4 °F /  3.6 °C 30.47in /  1031.7hPa Calm     87% 0.00in /  0mm 0 W/m2
02:04 40.8 °F /  4.9 °C 38.1 °F /  3.4 °C 30.47in /  1031.7hPa Calm     87% 0.00in /  0mm 0 W/m2
02:09 40.6 °F /  4.8 °C 37.9 °F /  3.3 °C 30.47in /  1031.7hPa Calm     87% 0.00in /  0mm 0 W/m2
02:14 40.6 °F /  4.8 °C 37.9 °F /  3.3 °C 30.47in /  1031.7hPa Calm     87% 0.00in /  0mm 0 W/m2
02:19 40.5 °F /  4.7 °C 37.8 °F /  3.2 °C 30.47in /  1031.7hPa Calm     87% 0.00in /  0mm 0 W/m2
02:24 40.3 °F /  4.6 °C 37.6 °F /  3.1 °C 30.47in /  1031.7hPa Calm     87% 0.00in /  0mm 0 W/m2
02:29 40.2 °F /  4.6 °C 37.9 °F /  3.3 °C 30.47in /  1031.7hPa Calm     88% 0.00in /  0mm 0 W/m2
02:34 40 °F /  4.4 °C 37.7 °F /  3.2 °C 30.47in /  1031.7hPa Calm     88% 0.00in /  0mm 0 W/m2
02:38 39.8 °F /  4.3 °C 37.6 °F /  3.1 °C 30.47in /  1031.7hPa Calm     88% 0.00in /  0mm 0 W/m2
02:44 39.7 °F /  4.3 °C 37.4 °F /  3 °C 30.47in /  1031.7hPa Calm     88% 0.00in /  0mm 0 W/m2
02:49 39.6 °F /  4.2 °C 37.2 °F /  2.9 °C 30.47in /  1031.7hPa Calm     88% 0.00in /  0mm 0 W/m2
02:54 39.6 °F /  4.2 °C 37.2 °F /  2.9 °C 30.47in /  1031.7hPa Calm     88% 0.00in /  0mm 0 W/m2
02:59 39.4 °F /  4.1 °C 37 °F /  2.8 °C 30.47in /  1031.7hPa Calm     88% 0.00in /  0mm 0 W/m2
03:04 39.1 °F /  3.9 °C 36.8 °F /  2.7 °C 30.47in /  1031.7hPa Calm     88% 0.00in /  0mm 0 W/m2
03:09 39 °F /  3.9 °C 36.7 °F /  2.6 °C 30.47in /  1031.7hPa Calm     88.2% 0.00in /  0mm 0 W/m2
03:14 39 °F /  3.9 °C 36.7 °F /  2.6 °C 30.47in /  1031.7hPa Calm     88.2% 0.00in /  0mm 0 W/m2
03:19 38.9 °F /  3.8 °C 36.8 °F /  2.7 °C 30.48in /  1032.1hPa Calm     89% 0.00in /  0mm 0 W/m2
03:24 38.8 °F /  3.8 °C 36.7 °F /  2.6 °C 30.48in /  1032.1hPa Calm     89% 0.00in /  0mm 0 W/m2
03:29 38.7 °F /  3.7 °C 36.5 °F /  2.5 °C 30.48in /  1032.1hPa Calm     89% 0.00in /  0mm 0 W/m2
03:34 38.5 °F /  3.6 °C 36.5 °F /  2.5 °C 30.48in /  1032.1hPa Calm     89% 0.00in /  0mm 0 W/m2
03:39 38.5 °F /  3.6 °C 36.5 °F /  2.5 °C 30.48in /  1032.1hPa Calm     89% 0.00in /  0mm 0 W/m2
03:44 38.1 °F /  3.4 °C 36.1 °F /  2.3 °C 30.48in /  1032.1hPa Calm     89% 0.00in /  0mm 0 W/m2
03:49 38.1 °F /  3.4 °C 36.1 °F /  2.3 °C 30.48in /  1032.1hPa Calm     89% 0.00in /  0mm 0 W/m2
03:54 38.1 °F /  3.4 °C 36.1 °F /  2.3 °C 30.48in /  1032.1hPa WNW 1.6mph /  2.6km/h 3mph /  4.8km/h 89% 0.00in /  0mm 0 W/m2
03:59 38.1 °F /  3.4 °C 36.1 °F /  2.3 °C 30.48in /  1032.1hPa WNW 0.2mph /  0.3km/h 2mph /  3.2km/h 89% 0.00in /  0mm 0 W/m2
04:04 37.9 °F /  3.3 °C 36 °F /  2.2 °C 30.48in /  1032.1hPa Calm     89% 0.00in /  0mm 0 W/m2
04:09 37.9 °F /  3.3 °C 36 °F /  2.2 °C 30.48in /  1032.1hPa Calm     89% 0.00in /  0mm 0 W/m2
04:14 37.8 °F /  3.2 °C 35.9 °F /  2.2 °C 30.47in /  1031.7hPa Calm     89% 0.00in /  0mm 0 W/m2
04:19 37.4 °F /  3 °C 35.4 °F /  1.9 °C 30.47in /  1031.7hPa Calm     89% 0.00in /  0mm 0 W/m2
04:24 37.1 °F /  2.8 °C 35.2 °F /  1.8 °C 30.47in /  1031.7hPa Calm     89% 0.00in /  0mm 0 W/m2
04:29 37 °F /  2.8 °C 35.2 °F /  1.8 °C 30.47in /  1031.7hPa Calm     89.4% 0.00in /  0mm 0 W/m2
04:34 37 °F /  2.8 °C 35.2 °F /  1.8 °C 30.47in /  1031.7hPa Calm     90% 0.00in /  0mm 0 W/m2
04:39 37 °F /  2.8 °C 35.2 °F /  1.8 °C 30.47in /  1031.7hPa Calm     90% 0.00in /  0mm 0 W/m2
04:44 37 °F /  2.8 °C 35.2 °F /  1.8 °C 30.47in /  1031.7hPa Calm     90% 0.00in /  0mm 0 W/m2
04:49 37.1 °F /  2.8 °C 35.3 °F /  1.8 °C 30.47in /  1031.7hPa Calm     90% 0.00in /  0mm 0 W/m2
04:54 37.2 °F /  2.9 °C 35.4 °F /  1.9 °C 30.47in /  1031.7hPa Calm     90% 0.00in /  0mm 0 W/m2
04:59 37.2 °F /  2.9 °C 35.4 °F /  1.9 °C 30.47in /  1031.7hPa Calm     90% 0.00in /  0mm 0 W/m2
05:04 37.2 °F /  2.9 °C 35.4 °F /  1.9 °C 30.47in /  1031.7hPa Calm     90% 0.00in /  0mm 0 W/m2
05:09 37.5 °F /  3.1 °C 35.7 °F /  2.1 °C 30.47in /  1031.7hPa Calm     90% 0.00in /  0mm 0 W/m2
05:14 37.6 °F /  3.1 °C 35.8 °F /  2.1 °C 30.47in /  1031.7hPa Calm     90% 0.00in /  0mm 0 W/m2
05:19 37.6 °F /  3.1 °C 35.8 °F /  2.1 °C 30.47in /  1031.7hPa Calm     90% 0.00in /  0mm 0 W/m2
05:24 37.6 °F /  3.1 °C 35.8 °F /  2.1 °C 30.47in /  1031.7hPa Calm     90% 0.00in /  0mm 0 W/m2
05:29 37.6 °F /  3.1 °C 35.8 °F /  2.1 °C 30.47in /  1031.7hPa Calm   2mph /  3.2km/h 90% 0.00in /  0mm 0 W/m2
05:34 37.6 °F /  3.1 °C 35.8 °F /  2.1 °C 30.47in /  1031.7hPa Calm     90% 0.00in /  0mm 0 W/m2
05:39 37.6 °F /  3.1 °C 35.8 °F /  2.1 °C 30.47in /  1031.7hPa Calm     90% 0.00in /  0mm 0 W/m2
05:44 37.6 °F /  3.1 °C 35.8 °F /  2.1 °C 30.47in /  1031.7hPa Calm     90% 0.00in /  0mm 0 W/m2
05:49 37.6 °F /  3.1 °C 35.8 °F /  2.1 °C 30.47in /  1031.7hPa Calm   1mph /  1.6km/h 90% 0.00in /  0mm 0 W/m2
05:54 37.7 °F /  3.2 °C 35.9 °F /  2.2 °C 30.47in /  1031.7hPa Calm   1mph /  1.6km/h 90% 0.00in /  0mm 0 W/m2
05:59 37.8 °F /  3.2 °C 36 °F /  2.2 °C 30.47in /  1031.7hPa Calm     90% 0.00in /  0mm 0 W/m2
06:04 37.8 °F /  3.2 °C 36 °F /  2.2 °C 30.47in /  1031.7hPa Calm     90% 0.00in /  0mm 0 W/m2
06:09 37.9 °F /  3.3 °C 36.4 °F /  2.4 °C 30.47in /  1031.7hPa Calm     90.8% 0.00in /  0mm 0 W/m2
06:14 37.9 °F /  3.3 °C 36.1 °F /  2.3 °C 30.47in /  1031.7hPa Calm     90% 0.00in /  0mm 0 W/m2
06:19 37.9 °F /  3.3 °C 36.3 °F /  2.4 °C 30.48in /  1032.1hPa Calm     90.6% 0.00in /  0mm 0 W/m2
06:24 37.9 °F /  3.3 °C 36.4 °F /  2.4 °C 30.48in /  1032.1hPa Calm     90.8% 0.00in /  0mm 5 W/m2
06:29 37.9 °F /  3.3 °C 36.5 °F /  2.5 °C 30.48in /  1032.1hPa Calm     91% 0.00in /  0mm 7 W/m2
06:34 37.9 °F /  3.3 °C 36.4 °F /  2.4 °C 30.48in /  1032.1hPa Calm     91% 0.00in /  0mm 9 W/m2
06:39 37.9 °F /  3.3 °C 36.5 °F /  2.5 °C 30.48in /  1032.1hPa Calm     91% 0.00in /  0mm 12 W/m2
06:44 37.9 °F /  3.3 °C 36.5 °F /  2.5 °C 30.48in /  1032.1hPa Calm     91% 0.00in /  0mm 16 W/m2
06:49 37.9 °F /  3.3 °C 36.5 °F /  2.5 °C 30.48in /  1032.1hPa Calm     91% 0.00in /  0mm 19 W/m2
06:54 38.1 °F /  3.4 °C 36.7 °F /  2.6 °C 30.48in /  1032.1hPa Calm     91% 0.00in /  0mm 26 W/m2
06:59 38 °F /  3.3 °C 36.6 °F /  2.6 °C 30.48in /  1032.1hPa Calm     91% 0.00in /  0mm 30 W/m2
07:04 37.9 °F /  3.3 °C 36.5 °F /  2.5 °C 30.49in /  1032.4hPa Calm     91% 0.00in /  0mm 35 W/m2
07:08 38.1 °F /  3.4 °C 36.7 °F /  2.6 °C 30.49in /  1032.4hPa Calm     91% 0.00in /  0mm 39 W/m2
07:14 37.9 °F /  3.3 °C 36.5 °F /  2.5 °C 30.49in /  1032.4hPa Calm     91% 0.00in /  0mm 40 W/m2
07:19 37.9 °F /  3.3 °C 36.5 °F /  2.5 °C 30.49in /  1032.4hPa Calm     91% 0.00in /  0mm 44 W/m2
07:24 37.9 °F /  3.3 °C 36.5 °F /  2.5 °C 30.49in /  1032.4hPa Calm     91% 0.00in /  0mm 47 W/m2
07:29 37.9 °F /  3.3 °C 36.5 °F /  2.5 °C 30.49in /  1032.4hPa Calm     91% 0.00in /  0mm 56 W/m2
07:34 37.8 °F /  3.2 °C 36.4 °F /  2.4 °C 30.50in /  1032.7hPa Calm     91% 0.00in /  0mm 65 W/m2
07:39 37.8 °F /  3.2 °C 36.3 °F /  2.4 °C 30.50in /  1032.7hPa Calm     91% 0.00in /  0mm 76 W/m2
07:44 37.8 °F /  3.2 °C 36.3 °F /  2.4 °C 30.50in /  1032.7hPa Calm     91% 0.00in /  0mm 88 W/m2
07:49 37.8 °F /  3.2 °C 36.3 °F /  2.4 °C 30.50in /  1032.7hPa Calm     91.2% 0.00in /  0mm 100 W/m2
07:54 38 °F /  3.3 °C 36.8 °F /  2.7 °C 30.50in /  1032.7hPa Calm     92% 0.00in /  0mm 128 W/m2
07:59 38.4 °F /  3.6 °C 37.1 °F /  2.8 °C 30.50in /  1032.7hPa Calm     92% 0.00in /  0mm 171 W/m2
08:04 38.8 °F /  3.8 °C 37.5 °F /  3.1 °C 30.50in /  1032.7hPa Calm     92% 0.00in /  0mm 195 W/m2
08:09 39.1 °F /  3.9 °C 37.8 °F /  3.2 °C 30.50in /  1032.7hPa Calm     92% 0.00in /  0mm 209 W/m2
08:14 39.2 °F /  4 °C 37.9 °F /  3.3 °C 30.50in /  1032.7hPa Calm     92% 0.00in /  0mm 206 W/m2
08:19 39.5 °F /  4.2 °C 38.3 °F /  3.5 °C 30.50in /  1032.7hPa Calm     92% 0.00in /  0mm 223 W/m2
08:24 40 °F /  4.4 °C 38.8 °F /  3.8 °C 30.50in /  1032.7hPa WNW 0.2mph /  0.3km/h 2mph /  3.2km/h 92% 0.00in /  0mm 220 W/m2
08:29 40.4 °F /  4.7 °C 39 °F /  3.9 °C 30.50in /  1032.7hPa Calm   2mph /  3.2km/h 91.8% 0.00in /  0mm 227 W/m2
08:34 40.7 °F /  4.8 °C 39.2 °F /  4 °C 30.50in /  1032.7hPa Calm   1mph /  1.6km/h 91.2% 0.00in /  0mm 220 W/m2
08:39 40.9 °F /  4.9 °C 39.3 °F /  4.1 °C 30.50in /  1032.7hPa Calm     91% 0.00in /  0mm 93 W/m2
08:44 41.2 °F /  5.1 °C 39.6 °F /  4.2 °C 30.50in /  1032.7hPa Calm     91% 0.00in /  0mm 176 W/m2
08:49 41.5 °F /  5.3 °C 39.8 °F /  4.3 °C 30.50in /  1032.7hPa Calm     90.8% 0.00in /  0mm 151 W/m2
08:54 42.2 °F /  5.7 °C 40.4 °F /  4.7 °C 30.50in /  1032.7hPa Calm     90% 0.00in /  0mm 281 W/m2
08:59 43.2 °F /  6.2 °C 41.2 °F /  5.1 °C 30.49in /  1032.4hPa Calm     89.6% 0.00in /  0mm 292 W/m2
09:04 43.3 °F /  6.3 °C 41 °F /  5 °C 30.49in /  1032.4hPa Calm     88.2% 0.00in /  0mm 315 W/m2
09:09 43.7 °F /  6.5 °C 41.1 °F /  5.1 °C 30.50in /  1032.7hPa WNW 0.2mph /  0.3km/h 1mph /  1.6km/h 87.2% 0.00in /  0mm 343 W/m2
09:14 44.4 °F /  6.9 °C 41.3 °F /  5.2 °C 30.49in /  1032.4hPa Calm   1mph /  1.6km/h 86% 0.00in /  0mm 362 W/m2
09:19 44.4 °F /  6.9 °C 40.9 °F /  4.9 °C 30.50in /  1032.7hPa Calm   1mph /  1.6km/h 84.6% 0.00in /  0mm 371 W/m2
09:24 44.8 °F /  7.1 °C 41.2 °F /  5.1 °C 30.50in /  1032.7hPa Calm     84% 0.00in /  0mm 387 W/m2
09:29 45.5 °F /  7.5 °C 41.6 °F /  5.3 °C 30.50in /  1032.7hPa Calm     83% 0.00in /  0mm 390 W/m2
09:34 45.7 °F /  7.6 °C 41.4 °F /  5.2 °C 30.50in /  1032.7hPa WNW 0.8mph /  1.3km/h 3mph /  4.8km/h 82% 0.00in /  0mm 415 W/m2
09:39 46.4 °F /  8 °C 41.8 °F /  5.4 °C 30.50in /  1032.7hPa WNW 1.4mph /  2.3km/h 3mph /  4.8km/h 81% 0.00in /  0mm 429 W/m2
09:44 47 °F /  8.3 °C 41.9 °F /  5.5 °C 30.50in /  1032.7hPa WNW 1mph /  1.6km/h 3mph /  4.8km/h 79.6% 0.00in /  0mm 446 W/m2
09:49 46.9 °F /  8.3 °C 41.6 °F /  5.3 °C 30.50in /  1032.7hPa WNW 0.5mph /  0.8km/h 3mph /  4.8km/h 78.8% 0.00in /  0mm 459 W/m2
09:54 47.7 °F /  8.7 °C 42.3 °F /  5.7 °C 30.50in /  1032.7hPa WNW 1.6mph /  2.6km/h 4mph /  6.4km/h 78.4% 0.00in /  0mm 473 W/m2
09:59 48.3 °F /  9.1 °C 42.4 °F /  5.8 °C 30.50in /  1032.7hPa WNW 2mph /  3.2km/h 5mph /  8km/h 77.2% 0.00in /  0mm 482 W/m2
10:04 49.6 °F /  9.8 °C 42.7 °F /  5.9 °C 30.50in /  1032.7hPa WNW 2.5mph /  4km/h 6mph /  9.7km/h 74.4% 0.00in /  0mm 494 W/m2
10:09 49.8 °F /  9.9 °C 42.5 °F /  5.8 °C 30.50in /  1032.7hPa SW 2.8mph /  4.5km/h 6mph /  9.7km/h 73% 0.00in /  0mm 503 W/m2
10:14 51.2 °F /  10.7 °C 42.8 °F /  6 °C 30.50in /  1032.7hPa SSW 3.3mph /  5.3km/h 7mph /  11.3km/h 70.6% 0.00in /  0mm 517 W/m2
10:19 51.4 °F /  10.8 °C 42.1 °F /  5.6 °C 30.50in /  1032.7hPa SSW 2.5mph /  4km/h 7mph /  11.3km/h 68.2% 0.00in /  0mm 529 W/m2
10:24 51.4 °F /  10.8 °C 41.2 °F /  5.1 °C 30.50in /  1032.7hPa South 3.8mph /  6.1km/h 11mph /  17.7km/h 65.4% 0.00in /  0mm 536 W/m2
10:29 51.5 °F /  10.8 °C 40.3 °F /  4.6 °C 30.50in /  1032.7hPa SE 4.7mph /  7.6km/h 11mph /  17.7km/h 63.6% 0.00in /  0mm 554 W/m2
10:34 52.3 °F /  11.3 °C 40.6 °F /  4.8 °C 30.50in /  1032.7hPa ESE 6.2mph /  10km/h 11mph /  17.7km/h 62.2% 0.00in /  0mm 561 W/m2
10:39 52.2 °F /  11.2 °C 40.3 °F /  4.6 °C 30.50in /  1032.7hPa ESE 5mph /  8km/h 11mph /  17.7km/h 61.8% 0.00in /  0mm 571 W/m2
10:44 52.3 °F /  11.3 °C 40.1 °F /  4.5 °C 30.50in /  1032.7hPa ESE 5.8mph /  9.3km/h 11mph /  17.7km/h 61% 0.00in /  0mm 582 W/m2
10:49 52.5 °F /  11.4 °C 38.8 °F /  3.8 °C 30.50in /  1032.7hPa East 10.2mph /  16.4km/h 12mph /  19.3km/h 57.6% 0.00in /  0mm 596 W/m2
10:54 52.8 °F /  11.6 °C 39.1 °F /  3.9 °C 30.50in /  1032.7hPa East 5.3mph /  8.5km/h 13mph /  20.9km/h 57.6% 0.00in /  0mm 606 W/m2
10:59 52.5 °F /  11.4 °C 38.4 °F /  3.6 °C 30.50in /  1032.7hPa ENE 7.5mph /  12.1km/h 14mph /  22.5km/h 56.6% 0.00in /  0mm 619 W/m2
11:04 52.7 °F /  11.5 °C 37.7 °F /  3.2 °C 30.50in /  1032.7hPa ESE 5.9mph /  9.5km/h 13mph /  20.9km/h 54.6% 0.00in /  0mm 645 W/m2
11:09 53.8 °F /  12.1 °C 38 °F /  3.3 °C 30.50in /  1032.7hPa East 3.9mph /  6.3km/h 8mph /  12.9km/h 53.2% 0.00in /  0mm 663 W/m2
11:14 54.1 °F /  12.3 °C 38.1 °F /  3.4 °C 30.50in /  1032.7hPa East 3mph /  4.8km/h 10mph /  16.1km/h 52.8% 0.00in /  0mm 671 W/m2
11:19 54.1 °F /  12.3 °C 38.4 °F /  3.6 °C 30.50in /  1032.7hPa ESE 3.7mph /  6km/h 7mph /  11.3km/h 53.4% 0.00in /  0mm 689 W/m2
11:24 54.5 °F /  12.5 °C 38.4 °F /  3.6 °C 30.49in /  1032.4hPa East 3.7mph /  6km/h 12mph /  19.3km/h 52.8% 0.00in /  0mm 712 W/m2
11:29 55.2 °F /  12.9 °C 38.8 °F /  3.8 °C 30.50in /  1032.7hPa ENE 4.9mph /  7.9km/h 10mph /  16.1km/h 52.4% 0.00in /  0mm 721 W/m2
11:34 55.4 °F /  13 °C 38.9 °F /  3.8 °C 30.49in /  1032.4hPa East 2.8mph /  4.5km/h 8mph /  12.9km/h 52% 0.00in /  0mm 731 W/m2
11:39 55.7 °F /  13.2 °C 38.6 °F /  3.7 °C 30.49in /  1032.4hPa ESE 4.2mph /  6.8km/h 10mph /  16.1km/h 51% 0.00in /  0mm 728 W/m2
11:44 54.4 °F /  12.4 °C 37.8 °F /  3.2 °C 30.49in /  1032.4hPa SE 3.7mph /  6km/h 12mph /  19.3km/h 51.6% 0.00in /  0mm 712 W/m2
11:49 54.6 °F /  12.6 °C 37.5 °F /  3.1 °C 30.49in /  1032.4hPa ESE 3.7mph /  6km/h 10mph /  16.1km/h 50.6% 0.00in /  0mm 700 W/m2
11:54 55.1 °F /  12.8 °C 38.3 °F /  3.5 °C 30.49in /  1032.4hPa East 4.5mph /  7.2km/h 10mph /  16.1km/h 51.2% 0.00in /  0mm 701 W/m2
11:59 55.4 °F /  13 °C 38.3 °F /  3.5 °C 30.49in /  1032.4hPa ESE 5.8mph /  9.3km/h 8mph /  12.9km/h 50.8% 0.00in /  0mm 703 W/m2
12:04 55.2 °F /  12.9 °C 38.1 °F /  3.4 °C 30.49in /  1032.4hPa ENE 4.4mph /  7.1km/h 10mph /  16.1km/h 50.8% 0.00in /  0mm 707 W/m2
12:09 55.5 °F /  13.1 °C 38.6 °F /  3.7 °C 30.49in /  1032.4hPa NE 4mph /  6.4km/h 11mph /  17.7km/h 51.2% 0.00in /  0mm 722 W/m2
12:14 55.9 °F /  13.3 °C 38.3 °F /  3.5 °C 30.49in /  1032.4hPa NE 3.1mph /  5km/h 11mph /  17.7km/h 49.8% 0.00in /  0mm 721 W/m2
12:19 56.6 °F /  13.7 °C 38.8 °F /  3.8 °C 30.49in /  1032.4hPa ESE 2.2mph /  3.5km/h 8mph /  12.9km/h 49.8% 0.00in /  0mm 775 W/m2
12:24 56.2 °F /  13.4 °C 38.4 °F /  3.6 °C 30.49in /  1032.4hPa SE 3.5mph /  5.6km/h 10mph /  16.1km/h 49.6% 0.00in /  0mm 800 W/m2
12:29 55.6 °F /  13.1 °C 38.4 °F /  3.6 °C 30.48in /  1032.1hPa ESE 4.1mph /  6.6km/h 8mph /  12.9km/h 50.6% 0.00in /  0mm 814 W/m2
12:34 55.2 °F /  12.9 °C 38.3 °F /  3.5 °C 30.48in /  1032.1hPa NE 5.3mph /  8.5km/h 9mph /  14.5km/h 51% 0.00in /  0mm 870 W/m2
12:39 54.3 °F /  12.4 °C 37.6 °F /  3.1 °C 30.48in /  1032.1hPa NNE 3.1mph /  5km/h 9mph /  14.5km/h 51.6% 0.00in /  0mm 905 W/m2
12:44 54.4 °F /  12.4 °C 38.1 °F /  3.4 °C 30.48in /  1032.1hPa SE 4.1mph /  6.6km/h 8mph /  12.9km/h 52.2% 0.00in /  0mm 905 W/m2
12:49 55.5 °F /  13.1 °C 38.5 °F /  3.6 °C 30.48in /  1032.1hPa East 2.8mph /  4.5km/h 9mph /  14.5km/h 51% 0.00in /  0mm 494 W/m2
12:54 55.6 °F /  13.1 °C 38.7 °F /  3.7 °C 30.48in /  1032.1hPa ENE 1.8mph /  2.9km/h 7mph /  11.3km/h 51.2% 0.00in /  0mm 320 W/m2
12:59 55 °F /  12.8 °C 37.9 °F /  3.3 °C 30.48in /  1032.1hPa SE 6.4mph /  10.3km/h 10mph /  16.1km/h 50.8% 0.00in /  0mm 287 W/m2
13:04 54.3 °F /  12.4 °C 38.4 °F /  3.6 °C 30.48in /  1032.1hPa East 4mph /  6.4km/h 9mph /  14.5km/h 53% 0.00in /  0mm 258 W/m2
13:09 55 °F /  12.8 °C 38.5 °F /  3.6 °C 30.48in /  1032.1hPa East 1mph /  1.6km/h 7mph /  11.3km/h 52% 0.00in /  0mm 211 W/m2
13:14 54.8 °F /  12.7 °C 37.9 °F /  3.3 °C 30.48in /  1032.1hPa East 1.6mph /  2.6km/h 5mph /  8km/h 51% 0.00in /  0mm 163 W/m2
13:19 53.9 °F /  12.2 °C 37.9 °F /  3.3 °C 30.48in /  1032.1hPa East 3.3mph /  5.3km/h 5mph /  8km/h 52.8% 0.00in /  0mm 130 W/m2
13:24 54 °F /  12.2 °C 38.5 °F /  3.6 °C 30.48in /  1032.1hPa NE 1.8mph /  2.9km/h 9mph /  14.5km/h 54% 0.00in /  0mm 156 W/m2
13:29 54 °F /  12.2 °C 38.4 °F /  3.6 °C 30.48in /  1032.1hPa NE 3.6mph /  5.8km/h 7mph /  11.3km/h 53.8% 0.00in /  0mm 197 W/m2
13:34 53.3 °F /  11.8 °C 38.2 °F /  3.4 °C 30.48in /  1032.1hPa NNE 3mph /  4.8km/h 7mph /  11.3km/h 54.6% 0.00in /  0mm 200 W/m2
13:39 53.4 °F /  11.9 °C 38.5 °F /  3.6 °C 30.48in /  1032.1hPa NNE 2.5mph /  4km/h 7mph /  11.3km/h 55% 0.00in /  0mm 227 W/m2
13:44 53.3 °F /  11.8 °C 38.5 °F /  3.6 °C 30.48in /  1032.1hPa NNE 4.1mph /  6.6km/h 8mph /  12.9km/h 55.2% 0.00in /  0mm 264 W/m2
13:49 53.2 °F /  11.8 °C 38.8 °F /  3.8 °C 30.48in /  1032.1hPa NNE 5.3mph /  8.5km/h 9mph /  14.5km/h 56% 0.00in /  0mm 279 W/m2
13:54 52.9 °F /  11.6 °C 38.5 °F /  3.6 °C 30.48in /  1032.1hPa NNE 4.1mph /  6.6km/h 9mph /  14.5km/h 56% 0.00in /  0mm 274 W/m2
13:59 52.9 °F /  11.6 °C 38.7 °F /  3.7 °C 30.48in /  1032.1hPa NNE 5.8mph /  9.3km/h 8mph /  12.9km/h 56.8% 0.00in /  0mm 265 W/m2
14:04 53.1 °F /  11.7 °C 39 °F /  3.9 °C 30.48in /  1032.1hPa NNE 2.4mph /  3.9km/h 9mph /  14.5km/h 57% 0.00in /  0mm 294 W/m2
14:09 53.6 °F /  12 °C 38.9 °F /  3.8 °C 30.48in /  1032.1hPa NNE 4.1mph /  6.6km/h 7mph /  11.3km/h 55.4% 0.00in /  0mm 313 W/m2
14:13 53.6 °F /  12 °C 38.9 °F /  3.8 °C 30.48in /  1032.1hPa NE 4.4mph /  7.1km/h 9mph /  14.5km/h 55.5% 0.00in /  0mm 374 W/m2
14:19 53.5 °F /  11.9 °C 39 °F /  3.9 °C 30.48in /  1032.1hPa NNE 3.6mph /  5.8km/h 9mph /  14.5km/h 55.8% 0.00in /  0mm 392 W/m2
14:24 54.6 °F /  12.6 °C 39.4 °F /  4.1 °C 30.48in /  1032.1hPa NNE 3.2mph /  5.1km/h 6mph /  9.7km/h 54.4% 0.00in /  0mm 768 W/m2
14:29 54.9 °F /  12.7 °C 39.1 °F /  3.9 °C 30.48in /  1032.1hPa NNE 2.1mph /  3.4km/h 6mph /  9.7km/h 53.4% 0.00in /  0mm 962 W/m2
14:34 55 °F /  12.8 °C 39.6 °F /  4.2 °C 30.48in /  1032.1hPa NNE 2.9mph /  4.7km/h 7mph /  11.3km/h 54% 0.00in /  0mm 320 W/m2
14:39 54.7 °F /  12.6 °C 39 °F /  3.9 °C 30.48in /  1032.1hPa NE 4.2mph /  6.8km/h 12mph /  19.3km/h 53.6% 0.00in /  0mm 283 W/m2
14:44 54.7 °F /  12.6 °C 39.1 °F /  3.9 °C 30.48in /  1032.1hPa NE 5.4mph /  8.7km/h 10mph /  16.1km/h 53.8% 0.00in /  0mm 313 W/m2
14:49 53.9 °F /  12.2 °C 38.4 °F /  3.6 °C 30.48in /  1032.1hPa North 4.2mph /  6.8km/h 9mph /  14.5km/h 54% 0.00in /  0mm 348 W/m2
14:54 54.1 °F /  12.3 °C 39.2 °F /  4 °C 30.48in /  1032.1hPa NNE 4.5mph /  7.2km/h 8mph /  12.9km/h 55.2% 0.00in /  0mm 359 W/m2
14:59 54.3 °F /  12.4 °C 38.7 °F /  3.7 °C 30.48in /  1032.1hPa NE 5.7mph /  9.2km/h 11mph /  17.7km/h 53.6% 0.00in /  0mm 341 W/m2
15:04 54.3 °F /  12.4 °C 38.9 °F /  3.8 °C 30.48in /  1032.1hPa ENE 4.6mph /  7.4km/h 9mph /  14.5km/h 54.2% 0.00in /  0mm 299 W/m2
15:09 54.8 °F /  12.7 °C 38.8 °F /  3.8 °C 30.47in /  1031.7hPa ENE 3.2mph /  5.1km/h 8mph /  12.9km/h 53% 0.00in /  0mm 278 W/m2
15:14 54.9 °F /  12.7 °C 38.8 °F /  3.8 °C 30.47in /  1031.7hPa ENE 6mph /  9.7km/h 10mph /  16.1km/h 52.8% 0.00in /  0mm 278 W/m2
15:19 54 °F /  12.2 °C 38.3 °F /  3.5 °C 30.47in /  1031.7hPa NNE 5.6mph /  9km/h 10mph /  16.1km/h 53.4% 0.00in /  0mm 288 W/m2
15:24 53.5 °F /  11.9 °C 38.6 °F /  3.7 °C 30.47in /  1031.7hPa NNE 5.2mph /  8.4km/h 10mph /  16.1km/h 55% 0.00in /  0mm 308 W/m2
15:29 53.6 °F /  12 °C 38.9 °F /  3.8 °C 30.47in /  1031.7hPa ENE 5mph /  8km/h 10mph /  16.1km/h 55.6% 0.00in /  0mm 383 W/m2
15:34 54.5 °F /  12.5 °C 39.2 °F /  4 °C 30.47in /  1031.7hPa NE 4.9mph /  7.9km/h 10mph /  16.1km/h 54.4% 0.00in /  0mm 446 W/m2
15:39 54.7 °F /  12.6 °C 39.3 °F /  4.1 °C 30.47in /  1031.7hPa NE 5mph /  8km/h 14mph /  22.5km/h 54.2% 0.00in /  0mm 489 W/m2
15:44 54.6 °F /  12.6 °C 39 °F /  3.9 °C 30.47in /  1031.7hPa ENE 5.7mph /  9.2km/h 14mph /  22.5km/h 53.8% 0.00in /  0mm 427 W/m2
15:49 55.3 °F /  12.9 °C 39.6 °F /  4.2 °C 30.47in /  1031.7hPa ENE 2.9mph /  4.7km/h 11mph /  17.7km/h 53.6% 0.00in /  0mm 464 W/m2
15:54 55.8 °F /  13.2 °C 39.7 °F /  4.3 °C 30.47in /  1031.7hPa NE 6.8mph /  10.9km/h 11mph /  17.7km/h 53% 0.00in /  0mm 550 W/m2
15:59 54.8 °F /  12.7 °C 39.1 °F /  3.9 °C 30.47in /  1031.7hPa NNE 6.1mph /  9.8km/h 9mph /  14.5km/h 53.6% 0.00in /  0mm 689 W/m2
16:04 54.7 °F /  12.6 °C 39.5 °F /  4.2 °C 30.47in /  1031.7hPa NE 6.7mph /  10.8km/h 10mph /  16.1km/h 54.6% 0.00in /  0mm 329 W/m2
16:09 54.5 °F /  12.5 °C 39.2 °F /  4 °C 30.46in /  1031.4hPa NE 5.9mph /  9.5km/h 15mph /  24.1km/h 54.4% 0.00in /  0mm 318 W/m2
16:14 54.3 °F /  12.4 °C 39.2 °F /  4 °C 30.46in /  1031.4hPa NE 7mph /  11.3km/h 13mph /  20.9km/h 54.6% 0.00in /  0mm 341 W/m2
16:19 54.5 °F /  12.5 °C 39.6 °F /  4.2 °C 30.46in /  1031.4hPa NE 3.2mph /  5.1km/h 11mph /  17.7km/h 55% 0.00in /  0mm 369 W/m2
16:24 55 °F /  12.8 °C 39.4 °F /  4.1 °C 30.46in /  1031.4hPa ENE 3.3mph /  5.3km/h 9mph /  14.5km/h 53.8% 0.00in /  0mm 431 W/m2
16:29 55.1 °F /  12.8 °C 39.4 °F /  4.1 °C 30.46in /  1031.4hPa NNE 5.6mph /  9km/h 11mph /  17.7km/h 53.8% 0.00in /  0mm 422 W/m2
16:34 54.9 °F /  12.7 °C 39.2 °F /  4 °C 30.46in /  1031.4hPa NE 4.8mph /  7.7km/h 11mph /  17.7km/h 53.6% 0.00in /  0mm 267 W/m2
16:39 54.6 °F /  12.6 °C 39 °F /  3.9 °C 30.46in /  1031.4hPa NE 6mph /  9.7km/h 11mph /  17.7km/h 53.8% 0.00in /  0mm 211 W/m2
16:44 54.4 °F /  12.4 °C 39.4 °F /  4.1 °C 30.46in /  1031.4hPa East 3.1mph /  5km/h 10mph /  16.1km/h 54.8% 0.00in /  0mm 186 W/m2
16:49 54.4 °F /  12.4 °C 39.6 °F /  4.2 °C 30.46in /  1031.4hPa East 1mph /  1.6km/h 10mph /  16.1km/h 55.4% 0.00in /  0mm 209 W/m2
16:54 54.7 °F /  12.6 °C 39.7 °F /  4.3 °C 30.46in /  1031.4hPa ENE 3mph /  4.8km/h 9mph /  14.5km/h 55% 0.00in /  0mm 357 W/m2
16:59 54.7 °F /  12.6 °C 39.7 °F /  4.3 °C 30.46in /  1031.4hPa ENE 4.6mph /  7.4km/h 9mph /  14.5km/h 55% 0.00in /  0mm 357 W/m2
17:04 54.4 °F /  12.4 °C 39.5 °F /  4.2 °C 30.46in /  1031.4hPa NNE 3.8mph /  6.1km/h 8mph /  12.9km/h 55% 0.00in /  0mm 274 W/m2
17:09 54.1 °F /  12.3 °C 39.4 °F /  4.1 °C 30.46in /  1031.4hPa NE 3.9mph /  6.3km/h 7mph /  11.3km/h 55.4% 0.00in /  0mm 262 W/m2
17:14 54.1 °F /  12.3 °C 39.4 °F /  4.1 °C 30.45in /  1031hPa NE 3.6mph /  5.8km/h 7mph /  11.3km/h 55.4% 0.00in /  0mm 352 W/m2
17:19 54.3 °F /  12.4 °C 39.5 °F /  4.2 °C 30.45in /  1031hPa East 4.5mph /  7.2km/h 9mph /  14.5km/h 55.4% 0.00in /  0mm 241 W/m2
17:24 54.5 °F /  12.5 °C 39.3 °F /  4.1 °C 30.45in /  1031hPa ENE 2mph /  3.2km/h 9mph /  14.5km/h 54.6% 0.00in /  0mm 195 W/m2
17:29 54.5 °F /  12.5 °C 38.9 °F /  3.8 °C 30.45in /  1031hPa ENE 6.7mph /  10.8km/h 10mph /  16.1km/h 53.8% 0.00in /  0mm 176 W/m2
17:34 54.1 °F /  12.3 °C 37.8 °F /  3.2 °C 30.45in /  1031hPa NE 7mph /  11.3km/h 16mph /  25.7km/h 52.2% 0.00in /  0mm 185 W/m2
17:39 53.6 °F /  12 °C 37.3 °F /  2.9 °C 30.45in /  1031hPa ENE 8.2mph /  13.2km/h 15mph /  24.1km/h 52.2% 0.00in /  0mm 185 W/m2
17:44 53.2 °F /  11.8 °C 36.8 °F /  2.7 °C 30.45in /  1031hPa NE 8mph /  12.9km/h 13mph /  20.9km/h 52% 0.00in /  0mm 204 W/m2
17:49 53.1 °F /  11.7 °C 36.9 °F /  2.7 °C 30.45in /  1031hPa ENE 5.7mph /  9.2km/h 11mph /  17.7km/h 52.4% 0.00in /  0mm 149 W/m2
17:54 53.1 °F /  11.7 °C 36.9 °F /  2.7 °C 30.45in /  1031hPa East 5.6mph /  9km/h 12mph /  19.3km/h 52.2% 0.00in /  0mm 132 W/m2
17:59 53.1 °F /  11.7 °C 36.7 °F /  2.6 °C 30.45in /  1031hPa NE 6.8mph /  10.9km/h 13mph /  20.9km/h 52% 0.00in /  0mm 125 W/m2
18:04 52.8 °F /  11.6 °C 36.5 °F /  2.5 °C 30.45in /  1031hPa NE 4.9mph /  7.9km/h 11mph /  17.7km/h 52.2% 0.00in /  0mm 116 W/m2
18:09 53 °F /  11.7 °C 37.1 °F /  2.8 °C 30.45in /  1031hPa East 3.9mph /  6.3km/h 8mph /  12.9km/h 53% 0.00in /  0mm 271 W/m2
18:14 53.1 °F /  11.7 °C 36.9 °F /  2.7 °C 30.45in /  1031hPa East 3.5mph /  5.6km/h 9mph /  14.5km/h 52.4% 0.00in /  0mm 260 W/m2
18:19 53.2 °F /  11.8 °C 36.9 °F /  2.7 °C 30.45in /  1031hPa East 4mph /  6.4km/h 9mph /  14.5km/h 52% 0.00in /  0mm 246 W/m2
18:24 53.6 °F /  12 °C 37.5 °F /  3.1 °C 30.45in /  1031hPa ESE 2.6mph /  4.2km/h 7mph /  11.3km/h 52.4% 0.00in /  0mm 225 W/m2
18:29 53.8 °F /  12.1 °C 37.3 °F /  2.9 °C 30.45in /  1031hPa East 2.1mph /  3.4km/h 10mph /  16.1km/h 51.8% 0.00in /  0mm 218 W/m2
18:34 54.1 °F /  12.3 °C 37.3 °F /  2.9 °C 30.45in /  1031hPa East 4.4mph /  7.1km/h 10mph /  16.1km/h 51.2% 0.00in /  0mm 197 W/m2
18:39 53.8 °F /  12.1 °C 36.4 °F /  2.4 °C 30.45in /  1031hPa ESE 3.9mph /  6.3km/h 11mph /  17.7km/h 50.2% 0.00in /  0mm 178 W/m2
18:44 53.2 °F /  11.8 °C 36.5 °F /  2.5 °C 30.45in /  1031hPa ESE 2.7mph /  4.3km/h 8mph /  12.9km/h 51.2% 0.00in /  0mm 158 W/m2
18:49 53.2 °F /  11.8 °C 36.8 °F /  2.7 °C 30.45in /  1031hPa ESE 4.7mph /  7.6km/h 7mph /  11.3km/h 51.8% 0.00in /  0mm 142 W/m2
18:54 53.1 °F /  11.7 °C 36.6 °F /  2.6 °C 30.45in /  1031hPa ESE 4.9mph /  7.9km/h 8mph /  12.9km/h 51.6% 0.00in /  0mm 125 W/m2
18:59 53.2 °F /  11.8 °C 36.7 °F /  2.6 °C 30.45in /  1031hPa East 1.7mph /  2.7km/h 7mph /  11.3km/h 51.6% 0.00in /  0mm 113 W/m2
19:04 53.7 °F /  12.1 °C 37 °F /  2.8 °C 30.45in /  1031hPa ESE 2.5mph /  4km/h 5mph /  8km/h 51.4% 0.00in /  0mm 98 W/m2
19:09 54 °F /  12.2 °C 36.5 °F /  2.5 °C 30.45in /  1031hPa ENE 4.7mph /  7.6km/h 8mph /  12.9km/h 50% 0.00in /  0mm 88 W/m2
19:14 53.8 °F /  12.1 °C 36.3 °F /  2.4 °C 30.45in /  1031hPa ENE 1.7mph /  2.7km/h 8mph /  12.9km/h 50% 0.00in /  0mm 76 W/m2
19:19 53.9 °F /  12.2 °C 36.4 °F /  2.4 °C 30.45in /  1031hPa ENE 3.7mph /  6km/h 7mph /  11.3km/h 50% 0.00in /  0mm 69 W/m2
19:24 53.6 °F /  12 °C 36.4 °F /  2.4 °C 30.45in /  1031hPa East 4.8mph /  7.7km/h 11mph /  17.7km/h 50.4% 0.00in /  0mm 54 W/m2
19:29 52.9 °F /  11.6 °C 36.3 °F /  2.4 °C 30.45in /  1031hPa East 5.8mph /  9.3km/h 12mph /  19.3km/h 51.4% 0.00in /  0mm 37 W/m2
19:34 52.3 °F /  11.3 °C 36.3 °F /  2.4 °C 30.45in /  1031hPa East 7.2mph /  11.6km/h 11mph /  17.7km/h 52.8% 0.00in /  0mm 25 W/m2
19:39 51.9 °F /  11.1 °C 36.1 °F /  2.3 °C 30.46in /  1031.4hPa East 2.7mph /  4.3km/h 11mph /  17.7km/h 53% 0.00in /  0mm 21 W/m2
19:44 51.6 °F /  10.9 °C 36.3 °F /  2.4 °C 30.46in /  1031.4hPa ENE 2.1mph /  3.4km/h 7mph /  11.3km/h 54% 0.00in /  0mm 19 W/m2
19:49 51.4 °F /  10.8 °C 36 °F /  2.2 °C 30.46in /  1031.4hPa ENE 6.2mph /  10km/h 10mph /  16.1km/h 53.8% 0.00in /  0mm 16 W/m2
19:54 51.1 °F /  10.6 °C 35.8 °F /  2.1 °C 30.46in /  1031.4hPa ENE 1.7mph /  2.7km/h 11mph /  17.7km/h 54% 0.00in /  0mm 12 W/m2
19:59 50.7 °F /  10.4 °C 35.9 °F /  2.2 °C 30.46in /  1031.4hPa ENE 2mph /  3.2km/h 7mph /  11.3km/h 54.8% 0.00in /  0mm 9 W/m2
20:04 50.5 °F /  10.3 °C 36.2 °F /  2.3 °C 30.46in /  1031.4hPa East 2.9mph /  4.7km/h 8mph /  12.9km/h 56% 0.00in /  0mm 7 W/m2
20:09 50.2 °F /  10.1 °C 36.1 °F /  2.3 °C 30.47in /  1031.7hPa East 2.9mph /  4.7km/h 7mph /  11.3km/h 56.4% 0.00in /  0mm 5 W/m2
20:14 49.8 °F /  9.9 °C 35.9 °F /  2.2 °C 30.47in /  1031.7hPa ESE 2.6mph /  4.2km/h 9mph /  14.5km/h 56.8% 0.00in /  0mm 0 W/m2
20:19 49.6 °F /  9.8 °C 36 °F /  2.2 °C 30.47in /  1031.7hPa ESE 2mph /  3.2km/h 8mph /  12.9km/h 57.2% 0.00in /  0mm 0 W/m2
20:24 49.4 °F /  9.7 °C 36.1 °F /  2.3 °C 30.47in /  1031.7hPa ESE 1.9mph /  3.1km/h 8mph /  12.9km/h 58% 0.00in /  0mm 0 W/m2
20:29 49.1 °F /  9.5 °C 36.1 °F /  2.3 °C 30.47in /  1031.7hPa East 3.5mph /  5.6km/h 9mph /  14.5km/h 58.6% 0.00in /  0mm 0 W/m2
20:34 48.8 °F /  9.3 °C 36 °F /  2.2 °C 30.47in /  1031.7hPa East 3.6mph /  5.8km/h 9mph /  14.5km/h 59% 0.00in /  0mm 0 W/m2
20:39 48.6 °F /  9.2 °C 35.9 °F /  2.2 °C 30.48in /  1032.1hPa East 1.3mph /  2.1km/h 5mph /  8km/h 59.2% 0.00in /  0mm 0 W/m2
20:44 48.4 °F /  9.1 °C 36 °F /  2.2 °C 30.48in /  1032.1hPa East 1.9mph /  3.1km/h 5mph /  8km/h 60% 0.00in /  0mm 0 W/m2
20:49 48 °F /  8.9 °C 35.6 °F /  2 °C 30.48in /  1032.1hPa East 1.9mph /  3.1km/h 5mph /  8km/h 60% 0.00in /  0mm 0 W/m2
20:54 47.7 °F /  8.7 °C 35.9 °F /  2.2 °C 30.48in /  1032.1hPa East 2.3mph /  3.7km/h 6mph /  9.7km/h 61% 0.00in /  0mm 0 W/m2
20:59 47.6 °F /  8.7 °C 35.7 °F /  2.1 °C 30.48in /  1032.1hPa East 1.7mph /  2.7km/h 6mph /  9.7km/h 61% 0.00in /  0mm 0 W/m2
21:04 47.5 °F /  8.6 °C 35.7 °F /  2.1 °C 30.49in /  1032.4hPa East 2.2mph /  3.5km/h 5mph /  8km/h 61.3% 0.00in /  0mm 0 W/m2
21:09 47.2 °F /  8.4 °C 35.7 °F /  2.1 °C 30.49in /  1032.4hPa East 2.7mph /  4.3km/h 6mph /  9.7km/h 62% 0.00in /  0mm 0 W/m2
21:14 47.1 °F /  8.4 °C 35.7 °F /  2.1 °C 30.49in /  1032.4hPa East 3.3mph /  5.3km/h 7mph /  11.3km/h 62.4% 0.00in /  0mm 0 W/m2
21:19 46.9 °F /  8.3 °C 35.8 °F /  2.1 °C 30.49in /  1032.4hPa East 2.5mph /  4km/h 8mph /  12.9km/h 63% 0.00in /  0mm 0 W/m2
21:24 46.8 °F /  8.2 °C 35.6 °F /  2 °C 30.50in /  1032.7hPa ENE 3.3mph /  5.3km/h 7mph /  11.3km/h 63% 0.00in /  0mm 0 W/m2
21:29 46.6 °F /  8.1 °C 35.8 °F /  2.1 °C 30.50in /  1032.7hPa ENE 4.4mph /  7.1km/h 8mph /  12.9km/h 63.4% 0.00in /  0mm 0 W/m2
21:34 46.6 °F /  8.1 °C 36 °F /  2.2 °C 30.50in /  1032.7hPa ENE 4.7mph /  7.6km/h 8mph /  12.9km/h 64% 0.00in /  0mm 0 W/m2
21:39 46.2 °F /  7.9 °C 35.7 °F /  2.1 °C 30.50in /  1032.7hPa ENE 4.1mph /  6.6km/h 11mph /  17.7km/h 64.2% 0.00in /  0mm 0 W/m2
21:44 46 °F /  7.8 °C 35.8 °F /  2.1 °C 30.50in /  1032.7hPa ENE 2.5mph /  4km/h 7mph /  11.3km/h 65% 0.00in /  0mm 0 W/m2
21:49 45.8 °F /  7.7 °C 35.8 °F /  2.1 °C 30.50in /  1032.7hPa ENE 3.1mph /  5km/h 7mph /  11.3km/h 65.6% 0.00in /  0mm 0 W/m2
21:54 45.7 °F /  7.6 °C 35.8 °F /  2.1 °C 30.50in /  1032.7hPa ESE 3.1mph /  5km/h 9mph /  14.5km/h 66% 0.00in /  0mm 0 W/m2
21:59 45.4 °F /  7.4 °C 35.7 °F /  2.1 °C 30.50in /  1032.7hPa ESE 2.4mph /  3.9km/h 7mph /  11.3km/h 66.4% 0.00in /  0mm 0 W/m2
22:04 45.2 °F /  7.3 °C 35.9 °F /  2.2 °C 30.50in /  1032.7hPa ESE 2.9mph /  4.7km/h 7mph /  11.3km/h 67% 0.00in /  0mm 0 W/m2
22:09 45.1 °F /  7.3 °C 35.8 °F /  2.1 °C 30.50in /  1032.7hPa ESE 3.7mph /  6km/h 7mph /  11.3km/h 67.2% 0.00in /  0mm 0 W/m2
22:14 44.9 °F /  7.2 °C 35.7 °F /  2.1 °C 30.50in /  1032.7hPa East 2.8mph /  4.5km/h 8mph /  12.9km/h 67.6% 0.00in /  0mm 0 W/m2
22:19 44.8 °F /  7.1 °C 35.8 °F /  2.1 °C 30.50in /  1032.7hPa East 2.2mph /  3.5km/h 7mph /  11.3km/h 68% 0.00in /  0mm 0 W/m2
22:24 44.6 °F /  7 °C 35.6 °F /  2 °C 30.50in /  1032.7hPa East 3mph /  4.8km/h 9mph /  14.5km/h 68% 0.00in /  0mm 0 W/m2
22:29 44.4 °F /  6.9 °C 35.4 °F /  1.9 °C 30.50in /  1032.7hPa East 2.3mph /  3.7km/h 10mph /  16.1km/h 68% 0.00in /  0mm 0 W/m2
22:34 44.2 °F /  6.8 °C 35.3 °F /  1.8 °C 30.50in /  1032.7hPa ENE 4.8mph /  7.7km/h 13mph /  20.9km/h 68.2% 0.00in /  0mm 0 W/m2
22:39 44.2 °F /  6.8 °C 35.4 °F /  1.9 °C 30.50in /  1032.7hPa ENE 4.3mph /  6.9km/h 13mph /  20.9km/h 68.6% 0.00in /  0mm 0 W/m2
22:44 44.1 °F /  6.7 °C 35.4 °F /  1.9 °C 30.50in /  1032.7hPa ENE 3.9mph /  6.3km/h 9mph /  14.5km/h 69% 0.00in /  0mm 0 W/m2
22:49 44 °F /  6.7 °C 35.3 °F /  1.8 °C 30.51in /  1033.1hPa ENE 3.7mph /  6km/h 9mph /  14.5km/h 69% 0.00in /  0mm 0 W/m2
22:54 43.9 °F /  6.6 °C 35.2 °F /  1.8 °C 30.51in /  1033.1hPa ENE 4.1mph /  6.6km/h 9mph /  14.5km/h 69% 0.00in /  0mm 0 W/m2
22:59 43.8 °F /  6.6 °C 35.1 °F /  1.7 °C 30.51in /  1033.1hPa ENE 3.9mph /  6.3km/h 9mph /  14.5km/h 69% 0.00in /  0mm 0 W/m2
23:04 43.5 °F /  6.4 °C 34.9 °F /  1.6 °C 30.51in /  1033.1hPa ENE 2.5mph /  4km/h 6mph /  9.7km/h 69% 0.00in /  0mm 0 W/m2
23:09 43.3 °F /  6.3 °C 34.7 °F /  1.5 °C 30.51in /  1033.1hPa ENE 4.5mph /  7.2km/h 6mph /  9.7km/h 69.2% 0.00in /  0mm 0 W/m2
23:14 43.2 °F /  6.2 °C 34.9 °F /  1.6 °C 30.51in /  1033.1hPa ENE 3.3mph /  5.3km/h 8mph /  12.9km/h 70% 0.00in /  0mm 0 W/m2
23:19 43 °F /  6.1 °C 34.7 °F /  1.5 °C 30.51in /  1033.1hPa ENE 4.2mph /  6.8km/h 8mph /  12.9km/h 70% 0.00in /  0mm 0 W/m2
23:24 42.8 °F /  6 °C 34.5 °F /  1.4 °C 30.51in /  1033.1hPa ENE 3.5mph /  5.6km/h 6mph /  9.7km/h 70% 0.00in /  0mm 0 W/m2
23:29 42.6 °F /  5.9 °C 34.3 °F /  1.3 °C 30.51in /  1033.1hPa ENE 2.5mph /  4km/h 7mph /  11.3km/h 70% 0.00in /  0mm 0 W/m2
23:34 42.4 °F /  5.8 °C 34.2 °F /  1.2 °C 30.51in /  1033.1hPa ENE 2.9mph /  4.7km/h 6mph /  9.7km/h 70% 0.00in /  0mm 0 W/m2
23:39 42.3 °F /  5.7 °C 34 °F /  1.1 °C 30.51in /  1033.1hPa ENE 4.2mph /  6.8km/h 8mph /  12.9km/h 70% 0.00in /  0mm 0 W/m2
23:44 42.1 °F /  5.6 °C 33.8 °F /  1 °C 30.51in /  1033.1hPa ENE 2mph /  3.2km/h 7mph /  11.3km/h 70% 0.00in /  0mm 0 W/m2
23:49 42 °F /  5.6 °C 33.7 °F /  0.9 °C 30.51in /  1033.1hPa ENE 2.9mph /  4.7km/h 6mph /  9.7km/h 70% 0.00in /  0mm 0 W/m2
23:54 41.7 °F /  5.4 °C 33.3 °F /  0.7 °C 30.51in /  1033.1hPa ENE 4.6mph /  7.4km/h 7mph /  11.3km/h 69.6% 0.00in /  0mm 0 W/m2
23:58 41.7 °F /  5.4 °C 33.1 °F /  0.6 °C 30.51in /  1033.1hPa ENE 3.2mph /  5.1km/h 8mph /  12.9km/h 69% 0.00in /  0mm 0 W/m2
Bath Spa Weather
Compliments of Weather Underground - 2 mb